Time;durP1;ratioP1;P1;durP2;ratioP2;P2;SDS_P1;SDS_P2;PMS_P1;PMS_P2;Temp;Humidity;BMP_temperature;BMP_pressure;BME280_temperature;BME280_humidity;BME280_pressure;Samples;Min_cycle;Max_cycle;Signal;HPM_P1;HPM_P2
2023/05/01 00:01:19;;;;;;;9.10;8.30;;;10.80;99.90;;;;;;5012565;28;20261;-72
2023/05/01 00:03:44;;;;;;;9.30;8.50;;;10.80;99.90;;;;;;5012222;28;20206;-72
2023/05/01 00:06:10;;;;;;;10.70;9.43;;;10.90;99.90;;;;;;5012428;28;20641;-72
2023/05/01 00:08:35;;;;;;;9.27;8.47;;;10.80;99.90;;;;;;5011995;28;20181;-72
2023/05/01 00:11:03;;;;;;;9.87;8.97;;;10.80;99.90;;;;;;5012229;28;20178;-72
2023/05/01 00:13:29;;;;;;;10.13;8.83;;;10.70;99.90;;;;;;5010533;28;20688;-73
2023/05/01 00:15:54;;;;;;;9.00;8.20;;;10.70;99.90;;;;;;5012301;28;20420;-72
2023/05/01 00:18:20;;;;;;;8.87;8.00;;;10.60;99.90;;;;;;5011995;28;20919;-72
2023/05/01 00:20:46;;;;;;;10.27;9.27;;;10.60;99.90;;;;;;5012188;28;20175;-72
2023/05/01 00:23:12;;;;;;;15.43;10.17;;;10.50;99.90;;;;;;5012134;28;20202;-72
2023/05/01 00:25:38;;;;;;;10.30;9.40;;;10.60;99.90;;;;;;5012084;28;20171;-71
2023/05/01 00:28:05;;;;;;;9.50;8.60;;;10.50;99.90;;;;;;5012107;28;20503;-72
2023/05/01 00:30:32;;;;;;;10.63;9.50;;;10.50;99.90;;;;;;5012078;28;20228;-72
2023/05/01 00:32:58;;;;;;;10.73;8.57;;;10.50;99.90;;;;;;5012043;28;20966;-73
2023/05/01 00:35:24;;;;;;;11.97;10.67;;;10.50;99.90;;;;;;5012414;28;20421;-72
2023/05/01 00:37:49;;;;;;;10.90;9.90;;;10.50;99.90;;;;;;5012668;28;20480;-72
2023/05/01 00:40:15;;;;;;;10.87;9.77;;;10.50;99.90;;;;;;5011780;28;20166;-71
2023/05/01 00:42:40;;;;;;;13.83;9.73;;;10.40;99.90;;;;;;5011921;28;20198;-72
2023/05/01 00:45:07;;;;;;;10.70;9.60;;;10.40;99.90;;;;;;5012766;28;20167;-72
2023/05/01 00:47:35;;;;;;;10.13;9.17;;;10.40;99.90;;;;;;5012033;28;20171;-72
2023/05/01 00:50:01;;;;;;;13.40;9.73;;;10.40;99.90;;;;;;5010496;28;20508;-72
2023/05/01 00:52:27;;;;;;;9.93;9.03;;;10.40;99.90;;;;;;5013357;28;20797;-72
2023/05/01 00:54:53;;;;;;;11.03;10.03;;;10.50;99.90;;;;;;5012468;28;20444;-71
2023/05/01 00:57:21;;;;;;;10.17;9.27;;;10.50;99.90;;;;;;5012257;28;20621;-71
2023/05/01 00:59:47;;;;;;;10.23;9.23;;;10.50;99.90;;;;;;5015508;28;20946;-71
2023/05/01 01:02:16;;;;;;;9.80;8.90;;;10.40;99.90;;;;;;5012113;28;20824;-72
2023/05/01 01:04:43;;;;;;;10.87;9.57;;;10.40;99.90;;;;;;5013010;28;20820;-72
2023/05/01 01:07:30;;;;;;;10.33;9.40;;;10.30;99.90;;;;;;5011794;28;20762;-71
2023/05/01 01:10:21;;;;;;;10.60;9.63;;;10.40;99.90;;;;;;5011494;28;20501;-72
2023/05/01 01:13:07;;;;;;;10.70;9.70;;;10.40;99.90;;;;;;5011765;28;20418;-72
2023/05/01 01:15:41;;;;;;;10.73;9.20;;;10.30;99.90;;;;;;5011765;28;20421;-70
2023/05/01 01:18:14;;;;;;;10.40;9.30;;;10.40;99.90;;;;;;5011975;28;20432;-72
2023/05/01 01:21:05;;;;;;;9.57;8.40;;;10.40;99.90;;;;;;5012762;28;20761;-72
2023/05/01 01:24:04;;;;;;;8.60;7.80;;;10.40;99.90;;;;;;5013288;28;20468;-72
2023/05/01 01:26:54;;;;;;;9.93;8.93;;;10.40;99.90;;;;;;5015323;28;20413;-72
2023/05/01 01:29:41;;;;;;;8.57;7.77;;;10.40;99.90;;;;;;5014891;28;20782;-72
2023/05/01 01:32:21;;;;;;;9.53;8.63;;;10.40;99.90;;;;;;5015132;28;20421;-73
2023/05/01 01:34:52;;;;;;;9.13;8.23;;;10.40;99.90;;;;;;5015279;28;20437;-73
2023/05/01 01:37:27;;;;;;;9.73;8.83;;;10.40;99.90;;;;;;5015099;28;20425;-72
2023/05/01 01:39:56;;;;;;;10.00;9.03;;;10.40;99.90;;;;;;5014807;28;20417;-73
2023/05/01 01:42:26;;;;;;;10.47;9.47;;;10.40;99.90;;;;;;5014840;28;20448;-73
2023/05/01 01:44:56;;;;;;;9.87;8.90;;;10.40;99.90;;;;;;5014760;28;20567;-73
2023/05/01 01:47:30;;;;;;;9.70;8.90;;;10.50;99.90;;;;;;5014840;28;20425;-72
2023/05/01 01:50:00;;;;;;;11.20;10.20;;;10.50;99.90;;;;;;5014581;28;20410;-72
2023/05/01 01:52:28;;;;;;;10.83;9.80;;;10.40;99.90;;;;;;5014671;28;20978;-71
2023/05/01 01:54:57;;;;;;;10.83;9.90;;;10.30;99.90;;;;;;5014594;28;20437;-73
2023/05/01 01:57:24;;;;;;;10.03;9.17;;;10.30;99.90;;;;;;5014659;28;20440;-73
2023/05/01 01:59:50;;;;;;;10.17;9.23;;;10.30;99.90;;;;;;5014123;28;20426;-73
2023/05/01 02:02:19;;;;;;;10.13;9.27;;;10.30;99.90;;;;;;5014559;28;20426;-73
2023/05/01 02:04:46;;;;;;;10.40;9.50;;;10.30;99.90;;;;;;5014469;28;20499;-73
2023/05/01 02:07:13;;;;;;;10.63;9.53;;;10.30;99.90;;;;;;5014417;28;20426;-73
2023/05/01 02:09:40;;;;;;;11.30;10.20;;;10.30;99.90;;;;;;5014184;28;20468;-72
2023/05/01 02:12:08;;;;;;;10.63;9.53;;;10.20;99.90;;;;;;5014317;28;20468;-73
2023/05/01 02:14:35;;;;;;;9.33;8.43;;;10.30;99.90;;;;;;5014099;28;20457;-72
2023/05/01 02:17:02;;;;;;;10.13;9.13;;;10.20;99.90;;;;;;5014278;28;20428;-72
2023/05/01 02:19:28;;;;;;;10.00;9.00;;;10.30;99.90;;;;;;5013984;28;20846;-71
2023/05/01 02:21:56;;;;;;;10.20;9.30;;;10.30;99.90;;;;;;5014257;28;20487;-71
2023/05/01 02:24:23;;;;;;;9.87;8.97;;;10.30;99.90;;;;;;5014060;28;20462;-73
2023/05/01 02:26:54;;;;;;;10.20;9.30;;;10.30;99.90;;;;;;5014048;28;20525;-72
2023/05/01 02:29:19;;;;;;;9.67;8.77;;;10.30;99.90;;;;;;5013815;28;20412;-73
2023/05/01 02:31:45;;;;;;;11.13;10.13;;;10.30;99.90;;;;;;5013946;28;20421;-72
2023/05/01 02:34:11;;;;;;;12.00;9.60;;;10.30;99.90;;;;;;5013694;28;20195;-73
2023/05/01 02:36:36;;;;;;;8.97;8.27;;;10.30;99.90;;;;;;5013669;28;20181;-73
2023/05/01 02:39:02;;;;;;;9.60;8.80;;;10.30;99.90;;;;;;5013562;28;20417;-73
2023/05/01 02:41:31;;;;;;;10.60;9.80;;;10.30;99.90;;;;;;5013889;28;20178;-73
2023/05/01 02:44:00;;;;;;;10.37;9.37;;;10.30;99.90;;;;;;5013822;28;20207;-73
2023/05/01 02:46:29;;;;;;;11.67;10.03;;;10.30;99.90;;;;;;5013681;28;20831;-71
2023/05/01 02:48:56;;;;;;;9.27;8.47;;;10.30;99.90;;;;;;5013442;28;20827;-73
2023/05/01 02:51:23;;;;;;;9.63;8.73;;;10.20;99.90;;;;;;5013543;28;20414;-73
2023/05/01 02:53:48;;;;;;;10.47;9.57;;;10.20;99.90;;;;;;5013561;28;20438;-73
2023/05/01 02:56:14;;;;;;;10.83;9.83;;;10.20;99.90;;;;;;5013784;28;20430;-73
2023/05/01 02:58:40;;;;;;;9.40;8.60;;;10.20;99.90;;;;;;5013361;28;20171;-72
2023/05/01 03:01:06;;;;;;;9.80;8.93;;;10.30;99.90;;;;;;5013429;28;20472;-72
2023/05/01 03:03:31;;;;;;;9.93;9.00;;;10.30;99.90;;;;;;5013248;28;20508;-72
2023/05/01 03:05:58;;;;;;;10.40;9.50;;;10.30;99.90;;;;;;5013306;28;20171;-73
2023/05/01 03:08:23;;;;;;;11.13;8.00;;;10.30;99.90;;;;;;5013062;28;20175;-73
2023/05/01 03:10:49;;;;;;;10.40;9.03;;;10.40;99.90;;;;;;5013309;28;20421;-73
2023/05/01 03:13:15;;;;;;;9.97;9.00;;;10.40;99.90;;;;;;5013256;28;20293;-73
2023/05/01 03:15:41;;;;;;;10.33;9.33;;;10.50;99.90;;;;;;5013188;28;20194;-72
2023/05/01 03:18:07;;;;;;;9.50;8.70;;;10.50;99.90;;;;;;5013171;28;20417;-73
2023/05/01 03:20:32;;;;;;;11.37;10.37;;;10.60;99.90;;;;;;5012912;28;20766;-73
2023/05/01 03:22:58;;;;;;;9.77;8.87;;;10.60;99.90;;;;;;5012808;28;20216;-73
2023/05/01 03:25:24;;;;;;;13.50;10.33;;;10.60;99.90;;;;;;5013133;28;20167;-73
2023/05/01 03:27:49;;;;;;;11.30;10.33;;;10.60;99.90;;;;;;5013001;28;20159;-72
2023/05/01 03:30:15;;;;;;;9.93;8.97;;;10.50;99.90;;;;;;5012644;28;20672;-73
2023/05/01 03:32:40;;;;;;;10.87;9.87;;;10.50;99.90;;;;;;5012797;28;20258;-72
2023/05/01 03:35:06;;;;;;;13.80;9.50;;;10.60;99.90;;;;;;5012810;28;20208;-71
2023/05/01 03:37:32;;;;;;;10.10;9.20;;;10.60;99.90;;;;;;5012836;28;20182;-73
2023/05/01 03:39:58;;;;;;;9.73;8.87;;;10.70;99.90;;;;;;5012645;28;20170;-73
2023/05/01 03:42:24;;;;;;;10.00;9.00;;;10.60;99.90;;;;;;5012668;28;20430;-72
2023/05/01 03:44:50;;;;;;;9.70;8.80;;;10.60;99.90;;;;;;5012727;28;20456;-73
2023/05/01 03:47:15;;;;;;;10.30;9.40;;;10.60;99.90;;;;;;5012171;28;20410;-72
2023/05/01 03:49:42;;;;;;;11.37;8.80;;;10.50;99.90;;;;;;5012317;28;20178;-73
2023/05/01 03:52:08;;;;;;;11.30;10.20;;;10.50;99.90;;;;;;5012517;28;20174;-71
2023/05/01 03:54:34;;;;;;;10.90;9.73;;;10.50;99.90;;;;;;5012507;28;20442;-72
2023/05/01 03:56:59;;;;;;;9.43;8.47;;;10.50;99.90;;;;;;5012656;28;20850;-73
2023/05/01 03:59:25;;;;;;;15.07;9.83;;;10.50;99.90;;;;;;5012297;28;20179;-73
2023/05/01 04:01:51;;;;;;;10.47;9.57;;;10.50;99.90;;;;;;5012481;28;20174;-73
2023/05/01 04:04:17;;;;;;;16.00;10.30;;;10.40;99.90;;;;;;5012297;28;20461;-73
2023/05/01 04:06:43;;;;;;;10.00;9.10;;;10.40;99.90;;;;;;5012353;28;20175;-72
2023/05/01 04:09:08;;;;;;;9.87;8.97;;;10.50;99.90;;;;;;5012118;28;20422;-73
2023/05/01 04:11:34;;;;;;;12.03;10.17;;;10.50;99.90;;;;;;5012375;28;20546;-73
2023/05/01 04:14:00;;;;;;;11.53;10.43;;;10.50;99.90;;;;;;5012118;28;20695;-72
2023/05/01 04:16:25;;;;;;;10.43;9.33;;;10.50;99.90;;;;;;5012320;28;20523;-73
2023/05/01 04:18:51;;;;;;;11.10;10.00;;;10.60;99.90;;;;;;5012014;28;20189;-73
2023/05/01 04:21:17;;;;;;;11.17;10.17;;;10.60;99.90;;;;;;5012520;28;20596;-73
2023/05/01 04:23:43;;;;;;;11.40;10.30;;;10.50;99.90;;;;;;5010867;28;20461;-72
2023/05/01 04:26:08;;;;;;;13.53;10.30;;;10.50;99.90;;;;;;5012207;28;20218;-72
2023/05/01 04:28:34;;;;;;;11.30;9.73;;;10.60;99.90;;;;;;5011956;28;20659;-73
2023/05/01 04:31:00;;;;;;;11.00;9.50;;;10.60;99.90;;;;;;5012204;28;20703;-73
2023/05/01 04:33:27;;;;;;;10.53;9.63;;;10.70;99.90;;;;;;5012030;28;20191;-72
2023/05/01 04:35:52;;;;;;;12.10;10.90;;;10.70;99.90;;;;;;5012088;28;20725;-73
2023/05/01 04:38:18;;;;;;;11.20;10.30;;;10.70;99.90;;;;;;5011971;28;20505;-73
2023/05/01 04:40:44;;;;;;;12.80;11.73;;;10.80;99.90;;;;;;5012087;28;20249;-71
2023/05/01 04:43:10;;;;;;;14.07;12.70;;;10.80;99.90;;;;;;5011882;28;20202;-73
2023/05/01 04:45:37;;;;;;;12.10;10.90;;;10.80;99.90;;;;;;5012116;28;20406;-73
2023/05/01 04:48:03;;;;;;;11.40;10.47;;;10.80;99.90;;;;;;5012012;28;20179;-73
2023/05/01 04:50:29;;;;;;;11.10;10.00;;;10.90;99.90;;;;;;5011783;28;20413;-72
2023/05/01 04:52:54;;;;;;;12.33;10.13;;;10.90;99.90;;;;;;5011873;28;20209;-73
2023/05/01 04:55:20;;;;;;;11.93;10.60;;;10.90;99.90;;;;;;5012027;28;20167;-73
2023/05/01 04:57:45;;;;;;;12.17;11.07;;;10.90;99.90;;;;;;5012505;28;20574;-72
2023/05/01 05:00:11;;;;;;;12.57;11.47;;;10.90;99.90;;;;;;5015528;28;20179;-73
2023/05/01 05:02:40;;;;;;;12.23;10.63;;;10.90;99.90;;;;;;5015571;28;20171;-72
2023/05/01 05:05:05;;;;;;;12.00;10.90;;;10.90;99.90;;;;;;5015847;28;20454;-73
2023/05/01 05:07:31;;;;;;;11.07;10.07;;;10.90;99.90;;;;;;5015580;28;20414;-72
2023/05/01 05:09:56;;;;;;;11.47;10.53;;;10.90;99.90;;;;;;5015278;28;20518;-72
2023/05/01 05:12:22;;;;;;;12.30;11.17;;;11.00;99.90;;;;;;5015546;28;20174;-73
2023/05/01 05:14:47;;;;;;;11.70;10.70;;;11.00;99.90;;;;;;5015835;28;20194;-73
2023/05/01 05:17:13;;;;;;;12.77;10.10;;;11.00;99.90;;;;;;5015310;28;20171;-72
2023/05/01 05:19:38;;;;;;;11.53;10.43;;;11.00;99.90;;;;;;5015089;28;20792;-73
2023/05/01 05:22:04;;;;;;;11.97;10.80;;;11.00;99.90;;;;;;5015467;28;20181;-73
2023/05/01 05:24:30;;;;;;;11.80;10.70;;;11.00;99.90;;;;;;5015192;28;20206;-72
2023/05/01 05:26:55;;;;;;;12.50;11.20;;;11.00;99.90;;;;;;5015396;28;20175;-73
2023/05/01 05:29:21;;;;;;;13.67;12.30;;;11.00;99.90;;;;;;5014992;28;20171;-73
2023/05/01 05:31:46;;;;;;;12.23;11.13;;;11.00;99.90;;;;;;5015065;28;20190;-73
2023/05/01 05:34:12;;;;;;;14.20;12.37;;;10.90;99.90;;;;;;5015038;28;20238;-73
2023/05/01 05:36:38;;;;;;;13.00;11.70;;;10.90;99.90;;;;;;5015066;28;20202;-72
2023/05/01 05:39:03;;;;;;;13.03;11.73;;;11.00;99.90;;;;;;5014770;28;20254;-73
2023/05/01 05:41:29;;;;;;;13.83;12.63;;;11.00;99.90;;;;;;5014991;28;20175;-72
2023/05/01 05:43:55;;;;;;;12.50;11.17;;;11.00;99.90;;;;;;5014842;28;20213;-73
2023/05/01 05:46:20;;;;;;;12.93;11.73;;;11.00;99.90;;;;;;5014798;28;20195;-73
2023/05/01 05:48:46;;;;;;;12.53;11.33;;;11.10;99.90;;;;;;5014490;28;20182;-72
2023/05/01 05:51:11;;;;;;;12.43;11.20;;;11.00;99.90;;;;;;5014784;28;20167;-73
2023/05/01 05:53:37;;;;;;;12.23;11.13;;;11.00;99.90;;;;;;5014811;28;20201;-73
2023/05/01 05:56:03;;;;;;;13.03;11.73;;;11.00;99.90;;;;;;5014804;28;20237;-73
2023/05/01 05:58:29;;;;;;;11.77;10.70;;;11.10;99.90;;;;;;5014491;28;20230;-72
2023/05/01 06:00:55;;;;;;;12.33;11.13;;;11.10;99.90;;;;;;5014536;28;20422;-72
2023/05/01 06:03:21;;;;;;;12.40;11.40;;;11.20;99.90;;;;;;5014390;28;20533;-72
2023/05/01 06:05:46;;;;;;;12.20;11.10;;;11.20;99.90;;;;;;5014541;28;20249;-72
2023/05/01 06:08:13;;;;;;;12.13;11.00;;;11.30;99.90;;;;;;5014332;28;20171;-72
2023/05/01 06:10:41;;;;;;;14.77;13.37;;;11.40;99.90;;;;;;5013654;28;20167;-72
2023/05/01 06:13:07;;;;;;;12.17;11.27;;;11.40;99.90;;;;;;5014230;28;20469;-72
2023/05/01 06:15:33;;;;;;;15.27;12.57;;;11.50;99.90;;;;;;5014244;28;20512;-72
2023/05/01 06:17:59;;;;;;;21.00;16.40;;;11.60;99.90;;;;;;5014347;28;20513;-72
2023/05/01 06:20:25;;;;;;;15.20;13.13;;;11.70;99.90;;;;;;5014013;28;20970;-71
2023/05/01 06:22:50;;;;;;;14.10;12.90;;;11.80;99.90;;;;;;5014187;28;20211;-72
2023/05/01 06:25:16;;;;;;;13.07;11.90;;;11.90;99.90;;;;;;5014246;28;20576;-72
2023/05/01 06:27:42;;;;;;;11.30;10.37;;;12.00;99.90;;;;;;5014146;28;20171;-71
2023/05/01 06:30:08;;;;;;;11.30;10.20;;;12.10;99.90;;;;;;5013691;28;20417;-71
2023/05/01 06:32:34;;;;;;;9.90;9.03;;;12.10;99.90;;;;;;5014000;28;20202;-72
2023/05/01 06:34:59;;;;;;;10.27;9.47;;;12.30;99.90;;;;;;5013925;28;20934;-72
2023/05/01 06:37:25;;;;;;;10.40;9.20;;;12.30;99.90;;;;;;5013912;28;20175;-72
2023/05/01 06:39:50;;;;;;;10.90;8.90;;;12.10;99.90;;;;;;5013661;28;20175;-72
2023/05/01 06:42:16;;;;;;;16.70;14.90;;;12.00;99.90;;;;;;5013979;28;20175;-72
2023/05/01 06:44:42;;;;;;;10.70;9.70;;;12.00;99.90;;;;;;5013752;28;20386;-71
2023/05/01 06:47:08;;;;;;;10.40;9.47;;;12.10;99.90;;;;;;5013761;28;20179;-71
2023/05/01 06:49:34;;;;;;;9.40;8.60;;;12.10;99.90;;;;;;5012231;28;20418;-72
2023/05/01 06:51:59;;;;;;;8.67;7.97;;;12.10;99.90;;;;;;5013695;28;20417;-71
2023/05/01 06:54:27;;;;;;;8.33;7.63;;;12.00;99.90;;;;;;5013554;28;20566;-72
2023/05/01 06:56:53;;;;;;;9.90;7.60;;;12.00;99.90;;;;;;5013648;28;20183;-72
2023/05/01 06:59:19;;;;;;;9.90;9.00;;;12.10;99.90;;;;;;5013159;28;20899;-71
2023/05/01 07:01:44;;;;;;;9.17;8.27;;;12.30;99.90;;;;;;5013491;28;20221;-72
2023/05/01 07:04:10;;;;;;;8.67;7.97;;;12.40;99.90;;;;;;5013348;28;20213;-71
2023/05/01 07:06:36;;;;;;;11.40;9.17;;;12.50;99.90;;;;;;5013377;28;20181;-72
2023/05/01 07:09:02;;;;;;;10.13;9.23;;;12.70;99.90;;;;;;5013188;28;20171;-71
2023/05/01 07:11:28;;;;;;;10.57;9.67;;;12.80;99.90;;;;;;5013352;28;20167;-72
2023/05/01 07:13:54;;;;;;;11.20;10.03;;;12.80;99.90;;;;;;5012989;28;20519;-72
2023/05/01 07:16:20;;;;;;;9.87;9.07;;;12.90;99.90;;;;;;5013175;28;20246;-72
2023/05/01 07:18:45;;;;;;;10.20;9.17;;;13.00;99.90;;;;;;5012855;28;20418;-71
2023/05/01 07:21:11;;;;;;;9.83;8.87;;;13.10;99.90;;;;;;5013092;28;20230;-72
2023/05/01 07:23:37;;;;;;;10.57;9.70;;;12.90;99.90;;;;;;5013005;28;20571;-72
2023/05/01 07:26:03;;;;;;;9.47;8.67;;;12.90;99.90;;;;;;5013070;28;20414;-72
2023/05/01 07:28:29;;;;;;;10.33;9.50;;;12.90;99.90;;;;;;5012642;28;20525;-71
2023/05/01 07:30:54;;;;;;;10.23;9.43;;;12.90;99.90;;;;;;5012876;28;20175;-70
2023/05/01 07:33:20;;;;;;;9.87;8.97;;;13.00;99.90;;;;;;5012895;28;20472;-73
2023/05/01 07:35:45;;;;;;;11.43;10.33;;;13.20;99.90;;;;;;5012994;28;20189;-72
2023/05/01 07:38:12;;;;;;;9.33;8.53;;;13.30;99.90;;;;;;5012898;28;20193;-72
2023/05/01 07:40:38;;;;;;;9.73;8.93;;;13.30;99.90;;;;;;5012993;28;20261;-72
2023/05/01 07:43:04;;;;;;;9.10;8.40;;;13.30;99.90;;;;;;5012652;28;20615;-70
2023/05/01 07:45:29;;;;;;;9.70;9.00;;;13.50;99.90;;;;;;5012764;28;20182;-72
2023/05/01 07:47:55;;;;;;;10.90;9.90;;;13.50;99.90;;;;;;5012732;28;20664;-72
2023/05/01 07:50:21;;;;;;;9.73;8.73;;;13.40;99.90;;;;;;5012438;28;20170;-72
2023/05/01 07:52:47;;;;;;;9.77;8.97;;;13.40;99.90;;;;;;5012454;28;20800;-72
2023/05/01 07:55:13;;;;;;;9.63;8.83;;;13.30;99.90;;;;;;5012544;28;20174;-72
2023/05/01 07:57:38;;;;;;;9.47;8.67;;;13.30;99.90;;;;;;5012479;28;20543;-72
2023/05/01 08:00:04;;;;;;;11.40;10.17;;;13.30;99.90;;;;;;5012203;28;20178;-72
2023/05/01 08:02:30;;;;;;;9.50;8.70;;;13.40;99.90;;;;;;5007171;28;20191;-71
2023/05/01 08:04:55;;;;;;;9.83;8.93;;;13.60;99.90;;;;;;5010899;28;20453;-71
2023/05/01 08:07:21;;;;;;;9.27;8.47;;;13.60;99.90;;;;;;5009250;28;20182;-72
2023/05/01 08:09:47;;;;;;;9.10;8.30;;;13.80;99.90;;;;;;5007544;28;20552;-72
2023/05/01 08:12:12;;;;;;;9.77;8.90;;;13.60;99.90;;;;;;5012144;28;20250;-71
2023/05/01 08:14:38;;;;;;;11.47;9.57;;;13.70;99.90;;;;;;5011946;28;20298;-72
2023/05/01 08:17:03;;;;;;;9.97;9.07;;;13.90;99.90;;;;;;5012310;28;20531;-72
2023/05/01 08:19:29;;;;;;;7.80;7.10;;;14.10;99.90;;;;;;5012142;28;20179;-71
2023/05/01 08:21:55;;;;;;;8.53;7.83;;;13.90;99.90;;;;;;5012437;28;20179;-72
2023/05/01 08:24:20;;;;;;;8.50;7.73;;;13.90;99.90;;;;;;5011171;28;20580;-72
2023/05/01 08:26:46;;;;;;;9.60;8.80;;;14.20;99.90;;;;;;5010622;28;20254;-72
2023/05/01 08:29:11;;;;;;;10.60;9.63;;;14.40;99.90;;;;;;5010799;28;20179;-73
2023/05/01 08:31:38;;;;;;;9.40;8.50;;;14.70;99.90;;;;;;5012489;28;20167;-72
2023/05/01 08:34:04;;;;;;;9.87;8.60;;;15.20;99.90;;;;;;5014899;28;20282;-72
2023/05/01 08:36:30;;;;;;;9.33;8.57;;;15.50;99.90;;;;;;5015199;28;20421;-72
2023/05/01 08:38:56;;;;;;;9.07;8.37;;;15.80;99.90;;;;;;5015896;28;20790;-72
2023/05/01 08:41:22;;;;;;;12.30;8.03;;;16.00;99.90;;;;;;5016100;28;20427;-72
2023/05/01 08:43:48;;;;;;;7.87;7.17;;;16.30;99.90;;;;;;5015938;28;20214;-70
2023/05/01 08:46:29;;;;;;;7.63;6.93;;;16.40;99.90;;;;;;5016165;28;20418;-71
2023/05/01 08:48:58;;;;;;;8.20;7.50;;;16.20;99.90;;;;;;5015572;28;20429;-70
2023/05/01 08:51:24;;;;;;;8.50;7.70;;;16.20;99.90;;;;;;5015299;28;20496;-70
2023/05/01 08:53:52;;;;;;;7.33;6.73;;;16.20;99.90;;;;;;4996824;28;20508;-72
2023/05/01 08:56:20;;;;;;;7.80;7.10;;;16.10;99.90;;;;;;4996437;28;20425;-71
2023/05/01 08:58:48;;;;;;;7.83;7.23;;;16.40;99.90;;;;;;4996238;28;20780;-72
2023/05/01 09:01:15;;;;;;;8.17;7.47;;;16.30;99.90;;;;;;4996287;28;20450;-72
2023/05/01 09:03:43;;;;;;;8.43;7.43;;;16.50;99.90;;;;;;4996125;28;20466;-71
2023/05/01 09:06:09;;;;;;;7.53;6.93;;;16.60;99.90;;;;;;4996075;28;20430;-73
2023/05/01 09:08:35;;;;;;;7.13;6.53;;;17.00;99.90;;;;;;4995844;28;20444;-71
2023/05/01 09:11:02;;;;;;;7.37;6.77;;;17.30;99.90;;;;;;4996114;28;20928;-72
2023/05/01 09:13:28;;;;;;;8.60;7.90;;;17.30;99.90;;;;;;4996073;28;20222;-72
2023/05/01 09:15:54;;;;;;;7.83;7.23;;;16.80;99.90;;;;;;4996046;28;20438;-72
2023/05/01 09:18:20;;;;;;;7.90;7.30;;;16.50;99.90;;;;;;4995741;28;20787;-72
2023/05/01 09:20:46;;;;;;;7.60;7.00;;;16.30;99.90;;;;;;4995998;28;20190;-72
2023/05/01 09:23:11;;;;;;;7.77;7.07;;;16.20;99.90;;;;;;4995670;28;20211;-72
2023/05/01 09:25:37;;;;;;;7.53;6.83;;;16.50;99.90;;;;;;4995954;28;20180;-71
2023/05/01 09:28:06;;;;;;;9.07;8.37;;;16.80;99.90;;;;;;4995820;28;20202;-72
2023/05/01 09:30:36;;;;;;;7.80;7.00;;;17.40;99.90;;;;;;4995469;28;20212;-72
2023/05/01 09:33:10;;;;;;;7.47;6.87;;;17.80;99.90;;;;;;4995770;28;20446;-72
2023/05/01 09:35:53;;;;;;;6.70;5.93;;;18.30;99.90;;;;;;4995605;28;20450;-71
2023/05/01 09:38:24;;;;;;;10.70;5.77;;;19.20;99.90;;;;;;4995489;28;20521;-71
2023/05/01 09:40:51;;;;;;;7.00;6.40;;;19.40;99.90;;;;;;4995667;28;20530;-72
2023/05/01 09:43:27;;;;;;;6.90;6.30;;;19.50;99.90;;;;;;4995876;28;20473;-72
2023/05/01 09:46:10;;;;;;;6.40;5.90;;;19.30;99.90;;;;;;4994753;28;20429;-75
2023/05/01 09:48:36;;;;;;;7.50;7.00;;;19.40;99.90;;;;;;4995719;28;20453;-72
2023/05/01 09:51:24;;;;;;;6.97;6.47;;;19.50;99.90;;;;;;4995659;28;20429;-73
2023/05/01 09:53:51;;;;;;;7.03;6.43;;;19.40;99.90;;;;;;4995297;28;20446;-71
2023/05/01 09:56:17;;;;;;;7.33;6.73;;;18.80;99.90;;;;;;5003563;28;20522;-73
2023/05/01 09:58:43;;;;;;;7.00;6.50;;;18.50;99.90;;;;;;5013601;28;20444;-74
2023/05/01 10:01:09;;;;;;;8.20;7.40;;;18.30;99.90;;;;;;5013881;28;21032;-74
2023/05/01 10:03:34;;;;;;;6.93;6.43;;;18.70;99.90;;;;;;5013292;28;20564;-73
2023/05/01 10:06:02;;;;;;;6.83;6.33;;;19.00;99.90;;;;;;5014069;28;20179;-68
2023/05/01 10:08:49;;;;;;;6.50;6.00;;;19.20;99.90;;;;;;5013785;28;20167;-68
2023/05/01 10:11:15;;;;;;;6.83;6.33;;;19.50;99.90;;;;;;5014416;28;20487;-67
2023/05/01 10:13:41;;;;;;;6.57;6.17;;;19.50;99.90;;;;;;5014381;28;20462;-71
2023/05/01 10:16:26;;;;;;;6.23;5.70;;;19.20;99.90;;;;;;5008599;28;20451;-71
2023/05/01 10:18:53;;;;;;;6.97;6.47;;;18.90;99.90;;;;;;4994596;28;20664;-70
2023/05/01 10:21:19;;;;;;;5.80;5.40;;;19.20;99.90;;;;;;4994614;28;20484;-71
2023/05/01 10:23:45;;;;;;;5.93;5.53;;;19.40;99.90;;;;;;4994340;28;20470;-71
2023/05/01 10:26:12;;;;;;;8.30;7.70;;;19.90;99.90;;;;;;4994624;28;20167;-71
2023/05/01 10:28:39;;;;;;;7.90;7.20;;;20.00;99.90;;;;;;4994512;28;20171;-71
2023/05/01 10:31:06;;;;;;;8.97;8.00;;;20.20;99.90;;;;;;4994615;28;20419;-70
2023/05/01 10:33:31;;;;;;;9.87;8.87;;;20.30;99.90;;;;;;4994499;28;20826;-71
2023/05/01 10:35:58;;;;;;;9.37;8.73;;;20.50;99.90;;;;;;4994343;28;20410;-70
2023/05/01 10:38:32;;;;;;;9.30;8.50;;;20.60;99.90;;;;;;4994002;28;20310;-71
2023/05/01 10:40:58;;;;;;;9.57;8.77;;;20.70;99.90;;;;;;4994602;28;20506;-72
2023/05/01 10:43:28;;;;;;;9.20;8.50;;;20.80;99.90;;;;;;4994108;28;20593;-70
2023/05/01 10:46:17;;;;;;;9.23;8.40;;;21.20;99.90;;;;;;4994324;28;20175;-71
2023/05/01 10:48:46;;;;;;;10.20;9.30;;;21.60;98.50;;;;;;4993749;28;20463;-71
2023/05/01 10:51:26;;;;;;;8.67;7.87;;;21.60;97.40;;;;;;4993953;28;20423;-71
2023/05/01 10:54:13;;;;;;;9.30;8.63;;;21.30;98.50;;;;;;4994013;28;20444;-71
2023/05/01 10:56:41;;;;;;;11.30;7.63;;;21.10;99.10;;;;;;4993648;28;20449;-71
2023/05/01 10:59:07;;;;;;;9.90;9.00;;;20.70;99.90;;;;;;4993644;28;20423;-71
2023/05/01 11:01:38;;;;;;;9.87;9.03;;;20.40;99.90;;;;;;4993759;28;20513;-71
2023/05/01 11:04:27;;;;;;;9.63;8.80;;;20.00;99.90;;;;;;4993892;28;20561;-71
2023/05/01 11:07:03;;;;;;;10.20;8.87;;;19.60;99.90;;;;;;4993565;28;20941;-71
2023/05/01 11:09:40;;;;;;;9.53;8.73;;;19.50;99.90;;;;;;4993350;28;20430;-71
2023/05/01 11:12:07;;;;;;;12.27;11.27;;;19.20;99.90;;;;;;4993887;28;20415;-71
2023/05/01 11:15:06;;;;;;;12.20;11.10;;;18.90;99.90;;;;;;5007440;23;20545;-66
2023/05/01 11:17:41;;;;;;;12.47;11.47;;;18.30;99.90;;;;;;4979438;28;20431;-66
2023/05/01 11:20:10;;;;;;;10.23;9.40;;;18.00;99.90;;;;;;4992903;28;20410;-67
2023/05/01 11:22:43;;;;;;;11.33;10.33;;;17.70;99.90;;;;;;4993217;28;20406;-66
2023/05/01 11:25:20;;;;;;;12.60;11.50;;;17.80;99.90;;;;;;4993542;28;20439;-65
2023/05/01 11:27:53;;;;;;;11.50;10.47;;;17.70;99.90;;;;;;4993315;28;20425;-66
2023/05/01 11:30:19;;;;;;;11.17;10.17;;;17.60;99.90;;;;;;4993128;28;20419;-66
2023/05/01 11:32:46;;;;;;;16.80;15.47;;;17.50;99.90;;;;;;4993225;28;20426;-67
2023/05/01 11:35:20;;;;;;;13.07;11.97;;;17.40;99.90;;;;;;4992983;28;20439;-66
2023/05/01 11:37:47;;;;;;;12.63;11.23;;;17.40;99.90;;;;;;4993137;28;20419;-66
2023/05/01 11:40:26;;;;;;;10.07;9.37;;;17.40;99.90;;;;;;4992822;28;20450;-66
2023/05/01 11:43:04;;;;;;;10.37;9.37;;;17.40;99.90;;;;;;4993125;28;20415;-67
2023/05/01 11:45:30;;;;;;;11.50;10.40;;;17.30;99.90;;;;;;4992990;28;20807;-66
2023/05/01 11:47:56;;;;;;;10.80;9.90;;;17.40;99.90;;;;;;4992954;28;20427;-66
2023/05/01 11:50:37;;;;;;;10.77;9.90;;;17.10;99.90;;;;;;4992875;28;20514;-66
2023/05/01 11:53:10;;;;;;;11.43;10.50;;;16.90;99.90;;;;;;4992938;28;20426;-65
2023/05/01 11:55:37;;;;;;;10.27;9.47;;;16.90;99.90;;;;;;4992907;28;20451;-66
2023/05/01 11:58:03;;;;;;;11.40;10.33;;;16.80;99.90;;;;;;4992749;28;20427;-66
2023/05/01 12:00:42;;;;;;;10.47;9.60;;;16.90;99.90;;;;;;4992534;28;20430;-67
2023/05/01 12:03:10;;;;;;;12.03;11.13;;;17.00;99.90;;;;;;4992768;28;20459;-65
2023/05/01 12:05:41;;;;;;;11.20;10.30;;;17.00;99.90;;;;;;4992714;28;20525;-65
2023/05/01 12:08:18;;;;;;;11.53;10.63;;;17.00;99.90;;;;;;4991894;28;20426;-65
2023/05/01 12:10:47;;;;;;;11.57;10.47;;;17.00;99.90;;;;;;4992781;28;20450;-66
2023/05/01 12:13:15;;;;;;;10.80;10.00;;;17.00;99.90;;;;;;4992710;28;20419;-66
2023/05/01 12:15:43;;;;;;;11.67;10.77;;;16.90;99.90;;;;;;4992421;28;20457;-66
2023/05/01 12:18:11;;;;;;;10.97;9.83;;;17.00;99.90;;;;;;4992516;28;20418;-66
2023/05/01 12:20:50;;;;;;;14.40;10.13;;;16.90;99.90;;;;;;4992595;28;20803;-66
2023/05/01 12:23:28;;;;;;;11.57;10.47;;;17.00;99.90;;;;;;4992550;28;20824;-66
2023/05/01 12:25:54;;;;;;;13.73;12.53;;;17.10;99.90;;;;;;4992661;28;20488;-65
2023/05/01 12:28:19;;;;;;;10.20;9.20;;;17.30;99.90;;;;;;4992285;28;20423;-66
2023/05/01 12:30:47;;;;;;;10.97;10.07;;;17.60;99.90;;;;;;4992528;28;20179;-66
2023/05/01 12:33:18;;;;;;;11.73;10.70;;;17.90;99.90;;;;;;4992424;28;20246;-66
2023/05/01 12:35:45;;;;;;;11.00;9.90;;;18.10;99.90;;;;;;4992335;28;20907;-67
2023/05/01 12:38:14;;;;;;;12.20;11.30;;;18.20;99.90;;;;;;4992705;28;20765;-66
2023/05/01 12:40:49;;;;;;;11.30;10.30;;;18.20;99.90;;;;;;4992637;28;20992;-66
2023/05/01 12:43:15;;;;;;;10.57;9.77;;;18.20;99.90;;;;;;4992452;28;20878;-66